Time;durP1;ratioP1;P1;durP2;ratioP2;P2;SDS_P1;SDS_P2;PMS_P1;PMS_P2;Temp;Humidity;BMP_temperature;BMP_pressure;BME280_temperature;BME280_humidity;BME280_pressure;Samples;Min_cycle;Max_cycle;Signal;HPM_P1;HPM_P2
2022/09/04 00:01:45;;;;;;;272.70;18.23;;;;;14.80;96389.00;;;;8361282;28;20303;-67
2022/09/04 00:05:52;;;;;;;46.92;9.65;;;;;14.70;96379.00;;;;8360126;28;20242;-67
2022/09/04 00:10:30;;;;;;;38.70;8.23;;;;;14.60;96382.00;;;;8360327;28;20306;-67
2022/09/04 00:14:41;;;;;;;50.17;10.52;;;;;14.50;96380.00;;;;8360176;28;20711;-67
2022/09/04 00:19:12;;;;;;;89.80;10.70;;;;;14.50;96390.00;;;;8360796;28;20259;-67
2022/09/04 00:23:22;;;;;;;45.28;7.93;;;;;14.50;96389.00;;;;8364254;28;20292;-67
2022/09/04 00:27:32;;;;;;;94.65;9.45;;;;;14.50;96390.00;;;;8360805;28;20213;-67
2022/09/04 00:32:06;;;;;;;438.35;22.42;;;;;14.50;96389.00;;;;8360498;28;20235;-67
2022/09/04 00:36:12;;;;;;;57.78;9.65;;;;;14.50;96389.00;;;;8363023;28;20663;-67
2022/09/04 00:40:25;;;;;;;66.25;10.80;;;;;14.50;96396.00;;;;8372371;28;20728;-67
2022/09/04 00:44:49;;;;;;;280.60;20.02;;;;;14.50;96394.00;;;;8367583;28;20290;-67
2022/09/04 00:49:20;;;;;;;122.55;12.52;;;;;14.50;96401.00;;;;8366713;28;20277;-67
2022/09/04 00:53:55;;;;;;;383.33;21.33;;;;;14.60;96401.00;;;;8367583;28;20314;-67
2022/09/04 00:58:20;;;;;;;443.52;24.05;;;;;14.70;96405.00;;;;8365971;28;20233;-67
2022/09/04 01:02:37;;;;;;;293.00;17.83;;;;;14.80;96410.00;;;;8366537;28;20249;-67
2022/09/04 01:07:15;;;;;;;73.55;9.20;;;;;14.80;96406.00;;;;8366611;28;20302;-68
2022/09/04 01:11:33;;;;;;;64.72;10.13;;;;;14.90;96405.00;;;;8366485;28;20222;-68
2022/09/04 01:15:43;;;;;;;93.75;12.65;;;;;14.80;96403.00;;;;8366091;28;20302;-67
2022/09/04 01:19:56;;;;;;;96.75;12.82;;;;;14.80;96411.00;;;;8366731;28;20226;-67
2022/09/04 01:24:38;;;;;;;124.28;12.93;;;;;14.80;96416.00;;;;8365032;28;20223;-67
2022/09/04 01:29:01;;;;;;;216.35;17.10;;;;;14.80;96421.00;;;;8360720;28;20311;-67
2022/09/04 01:33:27;;;;;;;57.53;9.45;;;;;14.70;96414.00;;;;8355223;28;20231;-67
2022/09/04 01:37:48;;;;;;;34.47;9.15;;;;;14.60;96424.00;;;;8364952;28;20232;-65
2022/09/04 01:42:16;;;;;;;22.20;9.57;;;;;14.60;96428.00;;;;8364197;28;20223;-65
2022/09/04 01:46:41;;;;;;;377.45;21.00;;;;;14.50;96428.00;;;;8364993;28;20611;-65
2022/09/04 01:50:49;;;;;;;30.42;9.93;;;;;14.40;96430.00;;;;8364379;28;20728;-65
2022/09/04 01:55:23;;;;;;;20.48;9.75;;;;;14.30;96438.00;;;;8364221;28;20223;-65
2022/09/04 01:59:57;;;;;;;28.25;11.45;;;;;14.30;96443.00;;;;8364467;28;20565;-66
2022/09/04 02:04:11;;;;;;;100.50;13.43;;;;;14.30;96445.00;;;;8364100;28;20236;-65
2022/09/04 02:08:28;;;;;;;23.17;10.43;;;;;14.30;96449.00;;;;8364308;28;20800;-65
2022/09/04 02:12:37;;;;;;;17.10;8.02;;;;;14.30;96449.00;;;;8364795;28;20611;-65
2022/09/04 02:16:56;;;;;;;21.25;8.75;;;;;14.40;96454.00;;;;8363533;28;20249;-65
2022/09/04 02:21:05;;;;;;;55.67;11.68;;;;;14.40;96449.00;;;;8363170;28;20253;-65
2022/09/04 02:25:36;;;;;;;46.30;9.65;;;;;14.50;96446.00;;;;8364327;28;20230;-65
2022/09/04 02:29:44;;;;;;;82.82;10.60;;;;;14.50;96451.00;;;;8362837;28;20722;-65
2022/09/04 02:34:19;;;;;;;102.28;11.80;;;;;14.60;96450.00;;;;8363824;28;20238;-65
2022/09/04 02:38:32;;;;;;;44.17;8.35;;;;;14.40;96454.00;;;;8363107;28;20625;-65
2022/09/04 02:43:06;;;;;;;271.38;18.77;;;;;14.40;96453.00;;;;8363875;28;20299;-65
2022/09/04 02:47:19;;;;;;;188.50;15.35;;;;;14.50;96452.00;;;;8362897;28;20315;-65
2022/09/04 02:51:52;;;;;;;293.90;18.77;;;;;14.40;96458.00;;;;8363249;28;20227;-66
2022/09/04 02:56:15;;;;;;;224.98;15.43;;;;;14.50;96450.00;;;;8362631;28;20222;-65
2022/09/04 03:00:44;;;;;;;113.22;11.38;;;;;14.50;96452.00;;;;8362523;28;20728;-65
2022/09/04 03:05:17;;;;;;;30.95;7.05;;;;;14.50;96452.00;;;;8361824;28;20281;-65
2022/09/04 03:09:47;;;;;;;290.77;17.45;;;;;14.40;96448.00;;;;8362923;28;20216;-65
2022/09/04 03:14:00;;;;;;;59.28;9.27;;;;;14.40;96452.00;;;;8361893;28;20546;-65
2022/09/04 03:18:30;;;;;;;114.38;12.32;;;;;14.40;96446.00;;;;8362406;28;20319;-65
2022/09/04 03:22:38;;;;;;;202.32;16.17;;;;;14.30;96440.00;;;;8361160;28;20256;-66
2022/09/04 03:27:12;;;;;;;54.55;9.90;;;;;14.30;96445.00;;;;8361879;28;20227;-66
2022/09/04 03:31:50;;;;;;;244.95;16.15;;;;;14.30;96457.00;;;;8361985;28;20660;-65
2022/09/04 03:36:01;;;;;;;47.67;8.90;;;;;14.30;96461.00;;;;8361430;28;20274;-65
2022/09/04 03:40:31;;;;;;;30.42;8.13;;;;;14.30;96457.00;;;;8361787;28;20300;-66
2022/09/04 03:44:45;;;;;;;311.33;19.65;;;;;14.30;96456.00;;;;8361497;28;20572;-66
2022/09/04 03:49:08;;;;;;;426.92;21.65;;;;;14.20;96454.00;;;;8361698;28;20222;-65
2022/09/04 03:53:22;;;;;;;155.95;14.50;;;;;14.20;96462.00;;;;8360681;28;20228;-66
2022/09/04 03:57:51;;;;;;;109.10;12.27;;;;;14.20;96465.00;;;;8361499;28;20226;-65
2022/09/04 04:02:34;;;;;;;346.35;20.52;;;;;14.30;96467.00;;;;8358299;28;20231;-65
2022/09/04 04:07:21;;;;;;;217.00;15.77;;;;;14.30;96462.00;;;;8360895;28;20223;-65
2022/09/04 04:11:54;;;;;;;246.02;17.20;;;;;14.40;96467.00;;;;8359198;28;20289;-66
2022/09/04 04:16:29;;;;;;;270.35;16.38;;;;;14.40;96475.00;;;;8360098;28;20234;-67
2022/09/04 04:21:01;;;;;;;90.03;10.45;;;;;14.40;96469.00;;;;8359732;28;20235;-66
2022/09/04 04:25:40;;;;;;;123.97;11.65;;;;;14.40;96470.00;;;;8328367;28;20304;-66
2022/09/04 04:30:09;;;;;;;51.33;7.90;;;;;14.30;96472.00;;;;8327351;28;20304;-66
2022/09/04 04:34:52;;;;;;;50.63;8.30;;;;;14.30;96480.00;;;;8327539;28;20258;-66
2022/09/04 04:39:28;;;;;;;384.17;19.27;;;;;14.30;96485.00;;;;8327236;28;20302;-66
2022/09/04 04:44:02;;;;;;;439.95;21.65;;;;;14.30;96479.00;;;;8326903;28;20311;-66
2022/09/04 04:48:54;;;;;;;38.72;7.20;;;;;14.20;96498.00;;;;8322926;28;20220;-67
2022/09/04 04:53:05;;;;;;;114.00;11.32;;;;;14.10;96501.00;;;;8319150;28;20248;-68
2022/09/04 04:57:38;;;;;;;18.40;6.72;;;;;14.10;96501.00;;;;8327074;28;20319;-67
2022/09/04 05:02:13;;;;;;;50.58;10.57;;;;;14.10;96514.00;;;;8326918;28;20233;-66
2022/09/04 05:06:49;;;;;;;49.47;9.18;;;;;14.10;96525.00;;;;8326866;28;20231;-67
2022/09/04 05:11:30;;;;;;;23.75;7.78;;;;;14.20;96537.00;;;;8326627;28;20299;-67
2022/09/04 05:16:03;;;;;;;41.13;8.73;;;;;14.40;96540.00;;;;8326807;28;20238;-67
2022/09/04 05:20:40;;;;;;;32.92;8.18;;;;;14.60;96551.00;;;;8327630;28;20619;-67
2022/09/04 05:25:00;;;;;;;20.10;7.20;;;;;14.90;96556.00;;;;8362904;28;20557;-66
2022/09/04 05:29:34;;;;;;;45.17;8.70;;;;;15.10;96561.00;;;;8365666;28;20708;-66
2022/09/04 05:33:45;;;;;;;15.73;7.00;;;;;15.40;96565.00;;;;8365367;28;20238;-67
2022/09/04 05:37:56;;;;;;;50.95;9.13;;;;;15.70;96565.00;;;;8365318;28;20239;-67
2022/09/04 05:42:38;;;;;;;213.32;15.68;;;;;16.00;96574.00;;;;8364581;28;20291;-67
2022/09/04 05:47:11;;;;;;;197.98;15.43;;;;;16.10;96591.00;;;;8360518;28;20220;-64
2022/09/04 05:51:49;;;;;;;75.90;10.73;;;;;16.30;96591.00;;;;8361090;28;20212;-66
2022/09/04 05:56:25;;;;;;;59.33;10.63;;;;;16.50;96596.00;;;;8364551;28;20259;-66
2022/09/04 06:01:01;;;;;;;152.45;14.25;;;;;16.70;96604.00;;;;8363600;28;20224;-66
2022/09/04 06:05:33;;;;;;;44.38;9.77;;;;;17.00;96616.00;;;;8364344;28;20247;-66
2022/09/04 06:10:11;;;;;;;56.72;9.75;;;;;17.10;96613.00;;;;8363768;28;20212;-64
2022/09/04 06:14:55;;;;;;;59.00;9.95;;;;;17.20;96620.00;;;;8363368;28;20331;-66
2022/09/04 06:19:33;;;;;;;97.25;11.65;;;;;17.30;96624.00;;;;8350810;28;20306;-66
2022/09/04 06:29:15;;;;;;;23.98;9.38;;;;;17.70;96631.00;;;;8362768;28;20230;-66
2022/09/04 06:33:43;;;;;;;27.50;10.32;;;;;17.90;96633.00;;;;8362376;28;20216;-66
2022/09/04 06:38:16;;;;;;;23.95;10.45;;;;;18.10;96636.00;;;;8363236;28;20262;-66
2022/09/04 06:42:53;;;;;;;27.77;11.82;;;;;18.40;96637.00;;;;8360625;28;20211;-66
2022/09/04 06:47:29;;;;;;;18.33;9.48;;;;;18.60;96645.00;;;;8366768;28;20587;-67
2022/09/04 06:52:09;;;;;;;17.00;9.88;;;;;18.80;96645.00;;;;8362344;28;20285;-68
2022/09/04 06:56:44;;;;;;;22.02;10.55;;;;;19.10;96644.00;;;;8362390;28;20213;-66
2022/09/04 07:01:15;;;;;;;19.70;10.55;;;;;19.30;96650.00;;;;8362573;28;20227;-66
2022/09/04 07:05:44;;;;;;;15.43;8.85;;;;;19.40;96652.00;;;;8368011;28;20300;-66
2022/09/04 07:10:12;;;;;;;17.85;9.73;;;;;19.60;96659.00;;;;8362705;28;20224;-66
2022/09/04 07:14:53;;;;;;;16.13;9.88;;;;;19.90;96666.00;;;;8362250;28;20223;-66
2022/09/04 07:19:36;;;;;;;15.85;9.00;;;;;20.30;96682.00;;;;8362536;28;20224;-67
2022/09/04 07:23:48;;;;;;;11.68;8.15;;;;;20.70;96691.00;;;;8343140;28;20231;-66
2022/09/04 07:28:26;;;;;;;11.80;7.95;;;;;20.70;96689.00;;;;8362407;28;20593;-66
2022/09/04 07:32:53;;;;;;;9.77;7.20;;;;;20.80;96689.00;;;;8360903;28;20304;-66
2022/09/04 07:37:04;;;;;;;9.30;7.05;;;;;21.10;96697.00;;;;8361393;28;20277;-67
2022/09/04 07:41:36;;;;;;;9.27;7.00;;;;;21.40;96694.00;;;;8360656;28;20220;-67
2022/09/04 07:46:12;;;;;;;9.55;7.38;;;;;21.50;96699.00;;;;8360825;28;20213;-67
2022/09/04 07:50:43;;;;;;;13.25;8.15;;;;;21.70;96693.00;;;;8351349;28;20593;-67
2022/09/04 07:55:08;;;;;;;9.48;7.70;;;;;21.80;96705.00;;;;8360528;28;20658;-67
2022/09/04 07:59:48;;;;;;;10.95;7.03;;;;;22.00;96716.00;;;;8353501;28;20286;-67
2022/09/04 08:04:36;;;;;;;8.57;6.85;;;;;22.10;96719.00;;;;8358271;28;20216;-67
2022/09/04 08:09:12;;;;;;;9.02;7.38;;;;;22.20;96731.00;;;;8360793;28;20223;-67
2022/09/04 08:13:46;;;;;;;10.50;7.93;;;;;22.40;96727.00;;;;8360713;28;20273;-68
2022/09/04 08:18:18;;;;;;;11.30;8.55;;;;;22.50;96727.00;;;;8360634;28;20220;-68
2022/09/04 08:22:31;;;;;;;9.85;8.45;;;;;22.40;96725.00;;;;8360194;28;20216;-68
2022/09/04 08:27:04;;;;;;;10.35;8.23;;;;;22.40;96741.00;;;;8349476;28;20231;-69
2022/09/04 08:31:36;;;;;;;10.18;8.50;;;;;22.60;96744.00;;;;8360199;28;20664;-68
2022/09/04 08:35:48;;;;;;;10.20;8.65;;;;;23.30;96748.00;;;;8360512;28;20217;-67
2022/09/04 08:40:29;;;;;;;10.02;8.73;;;;;23.60;96752.00;;;;8360298;28;20221;-67
2022/09/04 08:45:09;;;;;;;12.52;10.63;;;;;24.30;96758.00;;;;8359676;28;20304;-68
2022/09/04 08:49:54;;;;;;;12.55;10.35;;;;;24.70;96756.00;;;;8360485;28;20235;-68
2022/09/04 08:54:35;;;;;;;15.35;12.43;;;;;25.30;96762.00;;;;8358991;28;20308;-68
2022/09/04 09:04:21;;;;;;;12.88;10.80;;;;;25.10;96774.00;;;;8365414;28;20212;-68
2022/09/04 09:08:54;;;;;;;12.77;10.68;;;;;25.30;96763.00;;;;8266210;28;20224;-69
2022/09/04 09:13:34;;;;;;;12.50;10.82;;;;;25.40;96774.00;;;;8365578;28;20220;-67
2022/09/04 09:18:22;;;;;;;12.93;10.07;;;;;25.80;96775.00;;;;8365430;28;20213;-68
2022/09/04 09:22:38;;;;;;;11.90;9.80;;;;;26.40;96769.00;;;;8360279;28;20217;-67
2022/09/04 09:27:12;;;;;;;9.43;8.52;;;;;27.20;96772.00;;;;8365292;28;20219;-67
2022/09/04 09:31:49;;;;;;;10.70;9.63;;;;;27.90;96772.00;;;;8365725;28;20618;-68
2022/09/04 09:36:26;;;;;;;9.50;8.55;;;;;27.90;96770.00;;;;8365276;28;20538;-68
2022/09/04 09:41:06;;;;;;;9.75;8.77;;;;;26.80;96766.00;;;;8364296;28;20617;-69
2022/09/04 09:45:48;;;;;;;8.40;6.90;;;;;27.50;96769.00;;;;8364756;28;20258;-69
2022/09/04 09:50:19;;;;;;;7.60;6.75;;;;;28.10;96767.00;;;;8364636;28;20304;-68
2022/09/04 09:55:02;;;;;;;10.02;7.28;;;;;28.30;96771.00;;;;8364920;28;20256;-68
2022/09/04 09:59:44;;;;;;;6.30;5.53;;;;;29.00;96769.00;;;;8363106;28;20244;-68
2022/09/04 10:04:22;;;;;;;5.90;5.05;;;;;28.50;96763.00;;;;8363323;28;20236;-70
2022/09/04 10:08:47;;;;;;;6.18;5.20;;;;;28.80;96768.00;;;;8362065;28;20277;-71
2022/09/04 10:13:29;;;;;;;5.25;4.75;;;;;28.80;96759.00;;;;8364177;28;20319;-70
2022/09/04 10:18:21;;;;;;;5.60;5.10;;;;;28.80;96754.00;;;;8362447;28;20223;-70
2022/09/04 10:33:26;;;;;;;4.20;3.80;;;;;30.40;96755.00;;;;8362360;28;20230;-71
2022/09/04 10:38:05;;;;;;;2.70;2.60;;;;;30.90;96753.00;;;;8363904;28;20542;-71
2022/09/04 10:42:39;;;;;;;2.47;2.38;;;;;31.00;96753.00;;;;8363597;28;20231;-69
2022/09/04 10:47:07;;;;;;;2.58;2.38;;;;;31.30;96751.00;;;;8362600;28;20227;-69
2022/09/04 10:51:53;;;;;;;2.30;2.20;;;;;31.20;96746.00;;;;8362550;28;20307;-69
2022/09/04 10:56:15;;;;;;;2.03;1.92;;;;;31.20;96750.00;;;;8361960;28;20239;-69
2022/09/04 11:00:49;;;;;;;2.03;1.90;;;;;31.70;96747.00;;;;8361131;28;20234;-70
2022/09/04 11:05:26;;;;;;;2.13;2.03;;;;;32.30;96748.00;;;;8363282;28;20224;-69
2022/09/04 11:10:15;;;;;;;2.10;2.00;;;;;32.40;96750.00;;;;8346675;28;20259;-69
2022/09/04 11:14:49;;;;;;;1.90;1.80;;;;;31.80;96748.00;;;;8195121;28;20302;-72
2022/09/04 11:25:00;;;;;;;1.65;1.60;;;;;30.90;96743.00;;;;8361340;28;20247;-70
2022/09/04 11:29:40;;;;;;;1.75;1.70;;;;;31.00;96754.00;;;;8361473;28;20634;-70
2022/09/04 11:34:32;;;;;;;2.28;1.63;;;;;30.70;96760.00;;;;8335725;28;20231;-71
2022/09/04 11:38:57;;;;;;;1.58;1.58;;;;;30.60;96760.00;;;;8340879;28;20632;-70
2022/09/04 11:43:29;;;;;;;1.60;1.50;;;;;30.40;96748.00;;;;8360780;28;20270;-70
2022/09/04 11:48:05;;;;;;;2.05;1.70;;;;;30.20;96749.00;;;;8360162;28;20315;-70
2022/09/04 11:52:58;;;;;;;1.58;1.48;;;;;30.00;96760.00;;;;8360917;28;20291;-70
2022/09/04 11:57:13;;;;;;;1.73;1.63;;;;;29.90;96757.00;;;;8360988;28;20709;-70
2022/09/04 12:01:40;;;;;;;1.60;1.50;;;;;30.10;96749.00;;;;8360427;28;20228;-70
2022/09/04 12:06:08;;;;;;;1.90;1.80;;;;;30.10;96745.00;;;;8360578;28;20241;-70
2022/09/04 12:10:41;;;;;;;1.42;1.40;;;;;30.00;96751.00;;;;8360629;28;20220;-70
2022/09/04 12:15:06;;;;;;;3.13;1.70;;;;;29.60;96754.00;;;;8361254;28;20220;-70
2022/09/04 12:19:45;;;;;;;1.60;1.55;;;;;29.50;96753.00;;;;8359442;28;20648;-70
2022/09/04 12:24:27;;;;;;;1.50;1.50;;;;;29.50;96749.00;;;;8313938;28;20237;-71
2022/09/04 12:29:16;;;;;;;1.40;1.40;;;;;29.40;96748.00;;;;8286723;28;20216;-71
2022/09/04 12:33:43;;;;;;;1.50;1.50;;;;;29.30;96748.00;;;;8337574;28;20219;-70
2022/09/04 12:38:11;;;;;;;2.40;1.50;;;;;29.30;96743.00;;;;8366526;28;20251;-71
2022/09/04 12:42:20;;;;;;;1.80;1.70;;;;;29.30;96757.00;;;;8336782;28;20667;-69
2022/09/04 12:46:49;;;;;;;1.63;1.52;;;;;29.20;96760.00;;;;8360178;28;20219;-70
2022/09/04 12:51:12;;;;;;;1.83;1.73;;;;;28.90;96760.00;;;;8334040;28;20229;-70
2022/09/04 12:55:45;;;;;;;1.92;1.60;;;;;28.90;96759.00;;;;8332628;28;20224;-69
2022/09/04 13:00:01;;;;;;;1.33;1.33;;;;;28.70;96770.00;;;;8332861;28;20602;-70
2022/09/04 13:04:33;;;;;;;1.60;1.50;;;;;28.60;96775.00;;;;8332588;28;20322;-69
2022/09/04 13:09:07;;;;;;;1.90;1.80;;;;;28.30;96777.00;;;;8333364;28;20300;-69
2022/09/04 13:13:42;;;;;;;2.17;1.95;;;;;28.10;96778.00;;;;8332832;28;20738;-69
2022/09/04 13:18:15;;;;;;;1.90;1.80;;;;;27.70;96784.00;;;;8331898;28;20267;-68
2022/09/04 13:22:31;;;;;;;3.13;2.00;;;;;26.60;96794.00;;;;8331916;28;20622;-68
2022/09/04 13:27:01;;;;;;;2.28;2.08;;;;;25.60;96784.00;;;;8352255;28;20230;-67
2022/09/04 13:31:25;;;;;;;2.65;2.00;;;;;24.70;96793.00;;;;8366126;28;20220;-67
2022/09/04 13:36:06;;;;;;;2.17;2.08;;;;;23.70;96792.00;;;;8364078;28;20251;-68
2022/09/04 13:40:26;;;;;;;4.95;2.33;;;;;23.20;96788.00;;;;8364195;28;20224;-67
2022/09/04 13:44:59;;;;;;;4.57;2.50;;;;;22.70;96800.00;;;;8363663;28;20503;-66
2022/09/04 13:49:10;;;;;;;2.63;2.53;;;;;22.40;96792.00;;;;8363930;28;20216;-66
2022/09/04 13:53:42;;;;;;;3.45;2.63;;;;;22.40;96791.00;;;;8363722;28;20225;-66
2022/09/04 13:58:18;;;;;;;3.60;2.50;;;;;22.40;96788.00;;;;8362945;28;20220;-66
2022/09/04 14:02:49;;;;;;;2.67;2.47;;;;;22.50;96787.00;;;;8363009;28;20221;-66
2022/09/04 14:07:04;;;;;;;2.97;2.65;;;;;22.50;96776.00;;;;8365100;28;20721;-66
2022/09/04 14:11:41;;;;;;;3.97;2.40;;;;;22.60;96784.00;;;;8364212;28;20625;-66
2022/09/04 14:16:07;;;;;;;2.20;2.10;;;;;22.60;96780.00;;;;8365486;28;20661;-67
2022/09/04 14:20:33;;;;;;;2.85;2.42;;;;;22.70;96777.00;;;;8360676;28;20619;-68
2022/09/04 14:25:05;;;;;;;2.30;2.17;;;;;22.70;96774.00;;;;8364220;28;20700;-69
2022/09/04 14:29:38;;;;;;;2.63;2.42;;;;;22.90;96777.00;;;;8364557;28;20612;-70
2022/09/04 14:34:12;;;;;;;2.30;2.10;;;;;23.20;96787.00;;;;8360256;28;20312;-69
2022/09/04 14:38:49;;;;;;;3.38;2.72;;;;;23.10;96786.00;;;;8358027;28;20244;-69
2022/09/04 14:43:22;;;;;;;3.00;2.78;;;;;23.10;96783.00;;;;8362745;28;20585;-70
2022/09/04 14:47:53;;;;;;;3.25;2.42;;;;;23.20;96780.00;;;;8362315;28;20220;-70
2022/09/04 14:52:33;;;;;;;2.67;2.47;;;;;23.50;96783.00;;;;8356448;28;20217;-69
2022/09/04 14:57:12;;;;;;;2.42;2.22;;;;;23.90;96779.00;;;;8362846;28;20266;-70
2022/09/04 15:01:53;;;;;;;3.30;2.53;;;;;24.40;96781.00;;;;8361734;28;20229;-70
2022/09/04 15:06:33;;;;;;;2.45;2.20;;;;;24.90;96777.00;;;;8363010;28;20224;-71
2022/09/04 15:11:09;;;;;;;2.75;1.90;;;;;25.50;96776.00;;;;8362137;28;20673;-71
2022/09/04 15:15:45;;;;;;;1.73;1.63;;;;;26.30;96774.00;;;;8361517;28;20224;-71
2022/09/04 15:20:21;;;;;;;1.63;1.60;;;;;27.20;96779.00;;;;8362191;28;20259;-71
2022/09/04 15:24:58;;;;;;;1.95;1.67;;;;;27.70;96785.00;;;;8360963;28;20665;-71
2022/09/04 15:29:37;;;;;;;2.35;2.00;;;;;27.90;96781.00;;;;8361511;28;20236;-71
2022/09/04 15:34:10;;;;;;;1.80;1.70;;;;;27.90;96776.00;;;;8361682;28;20820;-71
2022/09/04 15:38:50;;;;;;;2.08;1.92;;;;;27.90;96779.00;;;;8366334;28;20307;-70
2022/09/04 15:43:21;;;;;;;2.05;1.90;;;;;28.20;96791.00;;;;8359285;28;20232;-72
2022/09/04 15:48:01;;;;;;;1.77;1.73;;;;;28.50;96779.00;;;;8361985;28;20301;-71
2022/09/04 15:52:21;;;;;;;1.75;1.65;;;;;28.60;96792.00;;;;8361108;28;20638;-69
2022/09/04 15:56:44;;;;;;;1.80;1.70;;;;;28.80;96788.00;;;;8361026;28;20217;-69
2022/09/04 16:01:12;;;;;;;1.67;1.60;;;;;29.20;96786.00;;;;8356731;28;20248;-69
2022/09/04 16:05:43;;;;;;;1.70;1.60;;;;;29.60;96787.00;;;;8360713;28;20220;-71
2022/09/04 16:10:15;;;;;;;1.50;1.50;;;;;29.90;96791.00;;;;8359623;28;20243;-69
2022/09/04 16:14:49;;;;;;;2.90;1.58;;;;;30.00;96787.00;;;;8360292;28;20250;-69
2022/09/04 16:19:04;;;;;;;1.77;1.67;;;;;30.00;96787.00;;;;8360031;28;20297;-68
2022/09/04 16:23:30;;;;;;;1.80;1.70;;;;;30.10;96794.00;;;;8360992;28;20220;-68
2022/09/04 16:27:42;;;;;;;2.42;1.40;;;;;30.50;96784.00;;;;8359548;28;20232;-69
2022/09/04 16:32:12;;;;;;;1.50;1.50;;;;;30.70;96783.00;;;;8360742;28;20229;-70
2022/09/04 16:36:47;;;;;;;2.78;1.55;;;;;30.60;96780.00;;;;8360322;28;20228;-71
2022/09/04 16:41:27;;;;;;;1.60;1.55;;;;;30.40;96785.00;;;;8360489;28;20220;-68
2022/09/04 16:46:06;;;;;;;2.90;1.58;;;;;30.10;96786.00;;;;8360261;28;20295;-68
2022/09/04 16:50:38;;;;;;;1.70;1.60;;;;;29.40;96780.00;;;;8360447;28;20592;-68
2022/09/04 16:55:12;;;;;;;1.73;1.63;;;;;28.40;96789.00;;;;8359174;28;20217;-68
2022/09/04 16:59:48;;;;;;;2.17;1.52;;;;;27.70;96793.00;;;;8360130;28;20626;-66
2022/09/04 17:04:29;;;;;;;1.63;1.52;;;;;27.00;96787.00;;;;8359433;28;20228;-65
2022/09/04 17:09:03;;;;;;;3.97;1.80;;;;;26.30;96789.00;;;;8359780;28;20219;-65
2022/09/04 17:13:38;;;;;;;2.10;1.50;;;;;25.80;96793.00;;;;8360171;28;20603;-65
2022/09/04 17:18:10;;;;;;;2.00;1.83;;;;;25.20;96803.00;;;;8362005;28;20231;-65
2022/09/04 17:22:59;;;;;;;2.95;1.67;;;;;24.70;96798.00;;;;8365796;28;20610;-65
2022/09/04 17:28:05;;;;;;;2.20;1.60;;;;;24.20;96797.00;;;;8356087;28;20225;-65
2022/09/04 17:33:14;;;;;;;1.80;1.70;;;;;23.80;96800.00;;;;8364375;28;20246;-66
2022/09/04 17:37:51;;;;;;;2.17;2.08;;;;;23.30;96798.00;;;;8364652;28;20224;-68
2022/09/04 17:42:24;;;;;;;2.30;2.20;;;;;22.70;96800.00;;;;8365377;28;20236;-67
2022/09/04 17:47:02;;;;;;;2.00;1.90;;;;;22.30;96805.00;;;;8365214;28;20225;-67
2022/09/04 17:51:32;;;;;;;2.60;2.40;;;;;21.90;96804.00;;;;8364891;28;20247;-67
2022/09/04 17:56:10;;;;;;;2.50;2.30;;;;;21.50;96812.00;;;;8364924;28;20232;-68
2022/09/04 18:00:50;;;;;;;5.07;2.58;;;;;21.10;96818.00;;;;8363281;28;20300;-68
2022/09/04 18:05:18;;;;;;;6.00;2.50;;;;;20.70;96815.00;;;;8363581;28;20650;-68
2022/09/04 18:09:46;;;;;;;2.70;2.50;;;;;20.50;96824.00;;;;8360510;28;20521;-69
2022/09/04 18:14:22;;;;;;;2.83;2.58;;;;;20.30;96821.00;;;;8362575;28;20235;-68
2022/09/04 18:18:55;;;;;;;3.00;2.28;;;;;20.10;96830.00;;;;8364021;28;20304;-70
2022/09/04 18:23:30;;;;;;;2.80;2.50;;;;;19.90;96840.00;;;;8363502;28;20220;-70
2022/09/04 18:28:08;;;;;;;4.80;2.92;;;;;19.80;96851.00;;;;8362888;28;20236;-70
2022/09/04 18:32:46;;;;;;;2.90;2.50;;;;;19.80;96851.00;;;;8329694;28;20324;-70
2022/09/04 18:37:26;;;;;;;2.80;2.60;;;;;19.60;96843.00;;;;8330116;28;20221;-70
2022/09/04 18:42:30;;;;;;;2.83;2.63;;;;;19.30;96848.00;;;;8329443;28;20236;-70
2022/09/04 18:47:37;;;;;;;3.88;3.33;;;;;19.10;96842.00;;;;8328263;28;20279;-71
2022/09/04 18:52:47;;;;;;;3.97;3.00;;;;;19.00;96849.00;;;;8329840;28;20229;-71
2022/09/04 18:57:23;;;;;;;3.00;2.80;;;;;19.00;96855.00;;;;8319931;28;20712;-72
2022/09/04 19:01:55;;;;;;;2.47;2.38;;;;;18.90;96859.00;;;;8326416;28;20555;-72
2022/09/04 19:06:02;;;;;;;2.80;2.60;;;;;19.00;96859.00;;;;8330075;28;20228;-73
2022/09/04 19:10:43;;;;;;;3.13;2.78;;;;;18.90;96855.00;;;;8329429;28;20571;-71
2022/09/04 19:15:17;;;;;;;3.88;2.90;;;;;18.80;96865.00;;;;8316065;28;20213;-71
2022/09/04 19:19:51;;;;;;;3.33;2.97;;;;;18.70;96862.00;;;;8328930;28;20275;-70
2022/09/04 19:24:29;;;;;;;3.15;2.95;;;;;18.60;96864.00;;;;8328377;28;20264;-69
2022/09/04 19:29:07;;;;;;;3.50;2.85;;;;;18.50;96856.00;;;;8331620;28;20255;-70
2022/09/04 19:33:37;;;;;;;3.22;3.03;;;;;18.40;96858.00;;;;8362148;28;20212;-70
2022/09/04 19:38:10;;;;;;;3.70;2.90;;;;;18.30;96861.00;;;;8362042;28;20217;-71
2022/09/04 19:42:51;;;;;;;3.25;2.90;;;;;18.10;96861.00;;;;8360831;28;20273;-73
2022/09/04 19:47:50;;;;;;;3.20;3.00;;;;;17.90;96862.00;;;;8361226;28;20220;-71
2022/09/04 19:52:35;;;;;;;3.58;3.17;;;;;17.90;96862.00;;;;8360485;28;20236;-71
2022/09/04 19:57:17;;;;;;;3.50;3.20;;;;;17.90;96863.00;;;;8360594;28;20220;-71
2022/09/04 20:01:44;;;;;;;3.65;3.35;;;;;17.80;96863.00;;;;8328255;28;20221;-71
2022/09/04 20:05:55;;;;;;;14.88;3.75;;;;;17.60;96860.00;;;;8327901;28;20252;-71
2022/09/04 20:10:33;;;;;;;4.40;3.95;;;;;17.50;96861.00;;;;8327729;28;20240;-71
2022/09/04 20:14:42;;;;;;;3.72;3.35;;;;;17.50;96862.00;;;;8327044;28;20300;-71
2022/09/04 20:18:49;;;;;;;4.28;3.70;;;;;17.40;96856.00;;;;8328363;28;20321;-71
2022/09/04 20:23:21;;;;;;;4.60;4.20;;;;;17.30;96862.00;;;;8324762;28;20304;-70
2022/09/04 20:27:44;;;;;;;4.65;4.25;;;;;17.20;96866.00;;;;8326732;28;20558;-71
2022/09/04 20:31:54;;;;;;;5.43;3.85;;;;;17.20;96860.00;;;;8326720;28;20236;-70
2022/09/04 20:36:02;;;;;;;6.00;4.32;;;;;17.00;96850.00;;;;8327454;28;20232;-70
2022/09/04 20:40:16;;;;;;;5.07;4.40;;;;;16.90;96853.00;;;;8332886;28;20540;-71
2022/09/04 20:44:45;;;;;;;5.63;4.75;;;;;16.80;96857.00;;;;8328286;28;20225;-71
2022/09/04 20:49:22;;;;;;;6.05;4.88;;;;;16.80;96854.00;;;;8326723;28;20266;-71
2022/09/04 20:54:06;;;;;;;4.95;4.32;;;;;16.70;96857.00;;;;8331466;28;20665;-71
2022/09/04 20:58:33;;;;;;;6.72;4.35;;;;;16.80;96856.00;;;;8334281;28;20267;-71
2022/09/04 21:03:06;;;;;;;6.22;4.50;;;;;16.80;96853.00;;;;8333555;28;20243;-72
2022/09/04 21:07:38;;;;;;;4.88;4.45;;;;;16.80;96864.00;;;;8333196;28;20251;-71
2022/09/04 21:11:44;;;;;;;8.05;5.53;;;;;16.80;96862.00;;;;8333341;28;20595;-71
2022/09/04 21:16:30;;;;;;;6.35;4.82;;;;;16.80;96866.00;;;;8332552;28;20620;-71
2022/09/04 21:20:56;;;;;;;6.43;4.65;;;;;16.80;96867.00;;;;8332061;28;20562;-71
2022/09/04 21:25:27;;;;;;;4.97;4.38;;;;;16.70;96875.00;;;;8333603;28;20225;-71
2022/09/04 21:29:51;;;;;;;5.13;4.63;;;;;16.60;96874.00;;;;8331592;28;20611;-71
2022/09/04 21:34:12;;;;;;;10.45;4.93;;;;;16.60;96884.00;;;;8332436;28;20236;-72
2022/09/04 21:38:57;;;;;;;8.73;6.07;;;;;16.50;96890.00;;;;8332339;28;20296;-72
2022/09/04 21:43:31;;;;;;;10.10;6.63;;;;;16.50;96893.00;;;;8332879;28;20292;-72
2022/09/04 21:47:57;;;;;;;9.07;6.22;;;;;16.50;96894.00;;;;8331350;28;20224;-70
2022/09/04 21:52:19;;;;;;;11.45;6.65;;;;;16.50;96892.00;;;;8332799;28;20539;-71
2022/09/04 21:56:57;;;;;;;6.43;4.60;;;;;16.40;96891.00;;;;8332287;28;20220;-71
2022/09/04 22:01:36;;;;;;;7.15;4.50;;;;;16.40;96898.00;;;;8331380;28;20599;-69
2022/09/04 22:06:41;;;;;;;5.15;4.63;;;;;16.30;96896.00;;;;8331513;28;20229;-71
2022/09/04 22:11:27;;;;;;;6.72;5.00;;;;;16.20;96897.00;;;;8332312;28;20271;-72
2022/09/04 22:16:04;;;;;;;5.97;4.57;;;;;16.10;96884.00;;;;8329679;28;20269;-71
2022/09/04 22:20:27;;;;;;;8.18;5.13;;;;;16.00;96881.00;;;;8331840;28;20288;-71
2022/09/04 22:25:19;;;;;;;6.95;5.20;;;;;16.00;96889.00;;;;8336490;28;20229;-71
2022/09/04 22:29:51;;;;;;;9.15;5.40;;;;;15.90;96894.00;;;;8330691;28;20658;-72
2022/09/04 22:34:18;;;;;;;8.10;5.25;;;;;15.90;96898.00;;;;8296332;28;20256;-71
2022/09/04 22:39:00;;;;;;;12.82;5.35;;;;;15.90;96902.00;;;;8330806;28;20221;-72
2022/09/04 22:43:12;;;;;;;6.78;4.82;;;;;16.00;96905.00;;;;8330385;28;20290;-72
2022/09/04 22:47:35;;;;;;;8.15;5.00;;;;;15.90;96902.00;;;;8335820;28;20241;-72
2022/09/04 22:52:20;;;;;;;6.05;5.07;;;;;15.90;96904.00;;;;8330712;28;20324;-72